Time;durP1;ratioP1;P1;durP2;ratioP2;P2;SDS_P1;SDS_P2;PMS_P1;PMS_P2;Temp;Humidity;BMP_temperature;BMP_pressure;BME280_temperature;BME280_humidity;BME280_pressure;Samples;Min_cycle;Max_cycle;Signal;HPM_P1;HPM_P2
2022/10/06 00:00:21;;;;;;;10.45;1.52;;;14.30;99.90;;;;;;5044537;28;25058;-64
2022/10/06 00:02:47;;;;;;;17.08;1.65;;;14.30;99.90;;;;;;5045743;28;25086;-64
2022/10/06 00:05:13;;;;;;;7.80;2.47;;;14.20;99.90;;;;;;5047950;28;25133;-63
2022/10/06 00:07:38;;;;;;;12.57;2.42;;;14.20;99.90;;;;;;5044601;28;25038;-63
2022/10/06 00:10:05;;;;;;;11.85;1.90;;;14.20;99.90;;;;;;5045298;28;25059;-63
2022/10/06 00:12:46;;;;;;;14.23;1.95;;;14.20;99.90;;;;;;5040851;28;25099;-62
2022/10/06 00:15:14;;;;;;;7.20;1.65;;;14.20;99.90;;;;;;5043799;28;25050;-63
2022/10/06 00:17:40;;;;;;;10.05;1.35;;;14.10;99.90;;;;;;5043690;28;25100;-63
2022/10/06 00:20:07;;;;;;;12.07;1.95;;;14.10;99.90;;;;;;5050283;28;25111;-63
2022/10/06 00:22:44;;;;;;;11.05;2.38;;;14.10;99.90;;;;;;5041507;28;25064;-64
2022/10/06 00:25:13;;;;;;;9.40;1.80;;;14.00;99.90;;;;;;5048793;28;25078;-64
2022/10/06 00:27:41;;;;;;;7.53;1.70;;;14.00;99.90;;;;;;5037922;28;25049;-62
2022/10/06 00:30:10;;;;;;;10.32;1.90;;;14.00;99.90;;;;;;5034042;28;25078;-62
2022/10/06 00:32:36;;;;;;;15.30;1.90;;;14.00;99.90;;;;;;5044735;28;25168;-63
2022/10/06 00:35:02;;;;;;;13.75;2.28;;;14.00;99.90;;;;;;5032202;28;25065;-63
2022/10/06 00:37:28;;;;;;;15.13;2.00;;;13.90;99.90;;;;;;5047410;28;25056;-63
2022/10/06 00:39:54;;;;;;;7.93;1.50;;;13.90;99.90;;;;;;5046205;28;25165;-62
2022/10/06 00:42:24;;;;;;;14.02;2.38;;;13.90;99.90;;;;;;5047321;28;25076;-64
2022/10/06 00:44:50;;;;;;;12.15;2.00;;;13.90;99.90;;;;;;5044261;28;25082;-63
2022/10/06 00:47:21;;;;;;;11.73;2.08;;;13.90;99.90;;;;;;5047553;28;25066;-63
2022/10/06 00:49:47;;;;;;;9.55;1.95;;;13.90;99.90;;;;;;5046200;28;25081;-62
2022/10/06 00:52:16;;;;;;;11.45;1.92;;;13.90;99.90;;;;;;5045003;28;25051;-62
2022/10/06 00:54:42;;;;;;;12.55;1.48;;;13.80;99.90;;;;;;5043567;28;25073;-63
2022/10/06 00:57:08;;;;;;;16.08;2.58;;;13.80;99.90;;;;;;5046779;28;25178;-62
2022/10/06 00:59:35;;;;;;;12.02;1.33;;;13.80;99.90;;;;;;5046966;28;25108;-63
2022/10/06 01:02:06;;;;;;;21.45;3.58;;;13.80;99.90;;;;;;5047019;28;25151;-64
2022/10/06 01:04:34;;;;;;;9.38;1.90;;;13.80;99.90;;;;;;5043189;28;25058;-63
2022/10/06 01:07:00;;;;;;;9.80;1.25;;;13.80;99.90;;;;;;5040308;28;25171;-63
2022/10/06 01:09:28;;;;;;;14.77;2.20;;;13.80;99.90;;;;;;5044865;28;25090;-63
2022/10/06 01:11:57;;;;;;;6.82;1.60;;;13.90;99.90;;;;;;5043513;28;25052;-63
2022/10/06 01:14:24;;;;;;;8.50;1.40;;;13.80;99.90;;;;;;5036944;28;25109;-63
2022/10/06 01:17:04;;;;;;;11.43;1.80;;;13.80;99.90;;;;;;5038364;28;25093;-64
2022/10/06 01:19:48;;;;;;;7.35;1.50;;;13.80;99.90;;;;;;5042613;28;25069;-62
2022/10/06 01:22:16;;;;;;;6.72;1.48;;;13.80;99.90;;;;;;5037978;28;25085;-62
2022/10/06 01:24:45;;;;;;;12.63;1.55;;;13.80;99.90;;;;;;5039175;28;25073;-63
2022/10/06 01:27:12;;;;;;;11.18;2.35;;;13.80;99.90;;;;;;5041873;28;25146;-62
2022/10/06 01:29:37;;;;;;;6.18;1.40;;;13.80;99.90;;;;;;5042243;28;25050;-62
2022/10/06 01:32:03;;;;;;;5.20;1.65;;;13.70;99.90;;;;;;5037155;28;25072;-61
2022/10/06 01:34:29;;;;;;;9.85;2.20;;;13.70;99.90;;;;;;5044957;28;25185;-63
2022/10/06 01:36:54;;;;;;;14.98;2.08;;;13.80;99.90;;;;;;5043696;28;25077;-63
2022/10/06 01:39:20;;;;;;;13.80;1.58;;;13.80;99.90;;;;;;5046881;28;25061;-64
2022/10/06 01:41:46;;;;;;;9.52;1.42;;;13.80;99.90;;;;;;5037581;28;25066;-63
2022/10/06 01:44:12;;;;;;;12.30;2.50;;;13.80;99.90;;;;;;5043012;28;25134;-63
2022/10/06 01:46:38;;;;;;;11.48;2.05;;;13.80;99.90;;;;;;5038961;28;25081;-62
2022/10/06 01:49:04;;;;;;;7.95;1.77;;;13.80;99.90;;;;;;5046678;28;25085;-62
2022/10/06 01:51:29;;;;;;;6.82;1.70;;;13.70;99.90;;;;;;5037422;28;25057;-63
2022/10/06 01:53:55;;;;;;;7.35;2.05;;;13.70;99.90;;;;;;5042148;28;25104;-62
2022/10/06 01:56:20;;;;;;;10.52;1.98;;;13.60;99.90;;;;;;5036441;28;25126;-62
2022/10/06 01:58:47;;;;;;;8.60;1.38;;;13.60;99.90;;;;;;5038411;28;25060;-63
2022/10/06 02:01:12;;;;;;;7.68;1.50;;;13.60;99.90;;;;;;5046108;28;25136;-63
2022/10/06 02:03:39;;;;;;;8.85;1.67;;;13.50;99.90;;;;;;5044726;28;25121;-64
2022/10/06 02:06:06;;;;;;;14.02;2.80;;;13.50;99.90;;;;;;5039711;28;25070;-64
2022/10/06 02:08:32;;;;;;;16.10;3.30;;;13.40;99.90;;;;;;5043291;28;25096;-62
2022/10/06 02:11:02;;;;;;;14.15;2.33;;;13.40;99.90;;;;;;5042816;28;25080;-63
2022/10/06 02:13:29;;;;;;;12.40;1.70;;;13.40;99.90;;;;;;5046301;28;25106;-62
2022/10/06 02:15:56;;;;;;;7.60;1.75;;;13.50;99.90;;;;;;5047460;28;25113;-64
2022/10/06 02:18:22;;;;;;;6.43;1.77;;;13.50;99.90;;;;;;5039174;28;25101;-63
2022/10/06 02:20:47;;;;;;;7.65;1.30;;;13.40;99.90;;;;;;5041739;28;25058;-64
2022/10/06 02:23:13;;;;;;;11.55;1.63;;;13.30;99.90;;;;;;5034481;28;25096;-63
2022/10/06 02:25:38;;;;;;;7.82;2.67;;;13.30;99.90;;;;;;5038600;28;25060;-63
2022/10/06 02:28:04;;;;;;;12.85;2.00;;;13.20;99.90;;;;;;5035478;28;25099;-63
2022/10/06 02:30:29;;;;;;;8.80;1.70;;;13.30;99.90;;;;;;5036570;28;25083;-62
2022/10/06 02:32:55;;;;;;;10.77;1.83;;;13.30;99.90;;;;;;5037474;28;25074;-61
2022/10/06 02:35:20;;;;;;;17.55;1.73;;;13.20;99.90;;;;;;5033240;28;25075;-64
2022/10/06 02:37:46;;;;;;;13.50;1.70;;;13.20;99.90;;;;;;5040808;28;25053;-63
2022/10/06 02:40:12;;;;;;;12.07;1.80;;;13.10;99.90;;;;;;5038913;28;25068;-64
2022/10/06 02:42:38;;;;;;;12.13;2.03;;;13.10;99.90;;;;;;5042301;28;25073;-63
2022/10/06 02:45:05;;;;;;;10.05;1.83;;;13.10;99.90;;;;;;5043989;28;25131;-63
2022/10/06 02:47:32;;;;;;;9.65;1.70;;;13.00;99.90;;;;;;5045256;28;25155;-63
2022/10/06 02:50:04;;;;;;;9.73;2.00;;;13.00;99.90;;;;;;5041529;28;25160;-64
2022/10/06 02:52:34;;;;;;;6.43;1.50;;;13.00;99.90;;;;;;5036090;28;25131;-63
2022/10/06 02:55:04;;;;;;;6.78;1.58;;;13.00;99.90;;;;;;5042404;28;25168;-63
2022/10/06 02:57:30;;;;;;;15.43;1.60;;;13.00;99.90;;;;;;5042511;28;25052;-61
2022/10/06 02:59:56;;;;;;;5.07;1.20;;;13.10;99.90;;;;;;5041122;28;25063;-63
2022/10/06 03:02:21;;;;;;;16.13;1.95;;;13.20;99.90;;;;;;5044321;28;25069;-64
2022/10/06 03:04:47;;;;;;;6.03;1.70;;;13.20;99.90;;;;;;5042476;28;25074;-63
2022/10/06 03:07:14;;;;;;;16.83;2.05;;;13.20;99.90;;;;;;5045961;28;25079;-62
2022/10/06 03:09:39;;;;;;;7.15;1.60;;;13.20;99.90;;;;;;5031311;28;25092;-63
2022/10/06 03:12:05;;;;;;;10.63;2.05;;;13.20;99.90;;;;;;5039296;28;25050;-63
2022/10/06 03:14:31;;;;;;;10.80;1.95;;;13.20;99.90;;;;;;5042182;28;25129;-64
2022/10/06 03:16:56;;;;;;;7.78;1.60;;;13.20;99.90;;;;;;5045606;28;25130;-63
2022/10/06 03:19:22;;;;;;;16.40;1.55;;;13.20;99.90;;;;;;5037210;28;25075;-62
2022/10/06 03:21:48;;;;;;;8.15;1.40;;;13.20;99.90;;;;;;5038862;28;25127;-62
2022/10/06 03:24:14;;;;;;;14.45;3.05;;;13.20;99.90;;;;;;5045324;28;25157;-62
2022/10/06 03:26:42;;;;;;;11.05;3.50;;;13.10;99.90;;;;;;5039071;28;25067;-63
2022/10/06 03:29:08;;;;;;;12.88;1.88;;;13.10;99.90;;;;;;5037874;28;25097;-63
2022/10/06 03:31:34;;;;;;;12.88;1.90;;;13.00;99.90;;;;;;5034253;28;25051;-63
2022/10/06 03:33:59;;;;;;;4.93;1.55;;;13.00;99.90;;;;;;5044110;28;25120;-64
2022/10/06 03:36:28;;;;;;;8.07;1.98;;;13.00;99.90;;;;;;5040763;28;25145;-63
2022/10/06 03:38:54;;;;;;;10.07;1.33;;;13.10;99.90;;;;;;5066185;22;25056;-69
2022/10/06 03:41:23;;;;;;;7.15;1.92;;;13.10;99.90;;;;;;5030395;28;25068;-69
2022/10/06 03:43:50;;;;;;;9.00;1.80;;;13.10;99.90;;;;;;5037873;28;25084;-69
2022/10/06 03:46:19;;;;;;;12.43;2.08;;;13.00;99.90;;;;;;5038850;28;25054;-68
2022/10/06 03:48:45;;;;;;;10.05;1.73;;;13.00;99.90;;;;;;5026311;28;25065;-68
2022/10/06 03:51:14;;;;;;;12.95;2.85;;;13.00;99.90;;;;;;5039102;28;25074;-69
2022/10/06 03:53:42;;;;;;;6.20;1.45;;;13.00;99.90;;;;;;5035016;28;25054;-69
2022/10/06 03:56:20;;;;;;;16.52;1.95;;;13.10;99.90;;;;;;5035575;28;25102;-69
2022/10/06 03:58:50;;;;;;;15.93;1.80;;;13.10;99.90;;;;;;5030675;28;25071;-69
2022/10/06 04:01:22;;;;;;;11.07;1.40;;;13.10;99.90;;;;;;5033420;28;25080;-69
2022/10/06 04:03:48;;;;;;;9.27;1.98;;;13.10;99.90;;;;;;5036885;28;25124;-71
2022/10/06 04:06:16;;;;;;;9.27;1.67;;;13.10;99.90;;;;;;5038599;28;25091;-70
2022/10/06 04:08:42;;;;;;;7.43;1.83;;;13.10;99.90;;;;;;5023152;28;25064;-72
2022/10/06 04:11:10;;;;;;;14.50;3.33;;;13.20;99.90;;;;;;5041896;28;25121;-70
2022/10/06 04:13:36;;;;;;;10.77;1.65;;;13.10;99.90;;;;;;5043893;28;25086;-70
2022/10/06 04:16:30;;;;;;;7.15;1.50;;;13.10;99.90;;;;;;5033322;28;25061;-69
2022/10/06 04:18:57;;;;;;;9.18;2.15;;;13.00;99.90;;;;;;5038425;28;25089;-69
2022/10/06 04:21:24;;;;;;;13.52;1.70;;;13.00;99.90;;;;;;5039303;28;25117;-69
2022/10/06 04:23:54;;;;;;;12.20;2.70;;;13.00;99.90;;;;;;5035133;28;25055;-70
2022/10/06 04:26:21;;;;;;;11.40;2.15;;;13.00;99.90;;;;;;5038831;28;25077;-70
2022/10/06 04:28:46;;;;;;;8.27;1.67;;;13.00;99.90;;;;;;5043443;28;25076;-71
2022/10/06 04:31:12;;;;;;;9.85;1.90;;;12.90;99.90;;;;;;5042766;28;25060;-72
2022/10/06 04:33:38;;;;;;;6.15;1.65;;;12.90;99.90;;;;;;5046800;28;25150;-71
2022/10/06 04:36:05;;;;;;;13.60;2.00;;;12.80;99.90;;;;;;5025975;28;25075;-71
2022/10/06 04:38:33;;;;;;;8.13;1.85;;;12.80;99.90;;;;;;5043332;28;25105;-70
2022/10/06 04:41:11;;;;;;;11.70;2.20;;;12.80;99.90;;;;;;5037927;28;25084;-71
2022/10/06 04:43:37;;;;;;;7.18;1.70;;;12.70;99.90;;;;;;5042528;28;25116;-72
2022/10/06 04:46:03;;;;;;;14.65;2.40;;;12.70;99.90;;;;;;5035983;28;25102;-71
2022/10/06 04:48:30;;;;;;;15.27;1.88;;;12.70;99.90;;;;;;5031990;28;25116;-69
2022/10/06 04:51:04;;;;;;;11.18;3.53;;;12.70;99.90;;;;;;5020411;28;25052;-72
2022/10/06 04:53:30;;;;;;;13.07;1.45;;;12.60;99.90;;;;;;5046772;28;25050;-71
2022/10/06 04:56:01;;;;;;;11.65;1.38;;;12.50;99.90;;;;;;5041153;28;25070;-71
2022/10/06 04:58:39;;;;;;;16.25;2.22;;;12.50;99.90;;;;;;5044750;28;25056;-73
2022/10/06 05:01:16;;;;;;;14.10;2.35;;;12.50;99.90;;;;;;5040738;28;25083;-71
2022/10/06 05:03:43;;;;;;;7.07;1.42;;;12.40;99.90;;;;;;5044483;28;25074;-71
2022/10/06 05:06:13;;;;;;;9.38;1.98;;;12.40;99.90;;;;;;5032157;28;25074;-71
2022/10/06 05:08:39;;;;;;;5.93;2.53;;;12.30;99.90;;;;;;5043349;28;25049;-71
2022/10/06 05:11:08;;;;;;;13.50;1.70;;;12.30;99.90;;;;;;5036957;28;25070;-72
2022/10/06 05:13:35;;;;;;;9.02;1.85;;;12.30;99.90;;;;;;5046698;28;25131;-72
2022/10/06 05:16:01;;;;;;;12.60;2.63;;;12.40;99.90;;;;;;5043586;28;25127;-71
2022/10/06 05:18:28;;;;;;;12.32;1.65;;;12.40;99.90;;;;;;5046999;28;25088;-72
2022/10/06 05:21:02;;;;;;;10.35;1.52;;;12.40;99.90;;;;;;5042199;28;25085;-71
2022/10/06 05:23:29;;;;;;;13.70;2.92;;;12.40;99.90;;;;;;5039010;28;25080;-72
2022/10/06 05:25:56;;;;;;;16.98;2.35;;;12.40;99.90;;;;;;5037229;28;25088;-71
2022/10/06 05:28:23;;;;;;;8.40;1.75;;;12.40;99.90;;;;;;5043583;28;25078;-71
2022/10/06 05:30:58;;;;;;;12.07;2.25;;;12.40;99.90;;;;;;5035591;28;25140;-70
2022/10/06 05:33:25;;;;;;;9.25;1.83;;;12.30;99.90;;;;;;5027085;28;25074;-71
2022/10/06 05:35:58;;;;;;;19.10;3.88;;;12.30;99.90;;;;;;5036158;28;25062;-71
2022/10/06 05:38:26;;;;;;;14.05;2.40;;;12.20;99.90;;;;;;5041599;28;25066;-70
2022/10/06 05:41:02;;;;;;;17.55;3.47;;;12.20;99.90;;;;;;5025579;28;25150;-71
2022/10/06 05:43:28;;;;;;;10.38;1.88;;;12.20;99.90;;;;;;5025950;28;25060;-71
2022/10/06 05:45:56;;;;;;;5.10;1.95;;;12.30;99.90;;;;;;5031742;28;25079;-71
2022/10/06 05:48:22;;;;;;;13.80;2.92;;;12.20;99.90;;;;;;5000493;28;25047;-71
2022/10/06 05:50:56;;;;;;;13.27;2.38;;;12.20;99.90;;;;;;5025341;28;25058;-72
2022/10/06 05:53:21;;;;;;;14.45;2.42;;;12.30;99.90;;;;;;5040930;28;25059;-70
2022/10/06 05:55:47;;;;;;;13.00;3.05;;;12.30;99.90;;;;;;5035700;28;25053;-70
2022/10/06 05:58:13;;;;;;;10.35;2.22;;;12.30;99.90;;;;;;5035591;28;25057;-71
2022/10/06 06:00:38;;;;;;;16.00;3.50;;;12.30;99.90;;;;;;5021779;28;25074;-70
2022/10/06 06:03:08;;;;;;;12.40;2.00;;;12.30;99.90;;;;;;5028261;28;25079;-73
2022/10/06 06:05:33;;;;;;;12.93;2.50;;;12.30;99.90;;;;;;5026436;28;25074;-72
2022/10/06 06:07:59;;;;;;;15.48;2.10;;;12.40;99.90;;;;;;5031936;28;25055;-71
2022/10/06 06:10:24;;;;;;;9.70;1.77;;;12.40;99.90;;;;;;5025367;28;25053;-72
2022/10/06 06:12:50;;;;;;;12.80;2.15;;;12.40;99.90;;;;;;5039164;28;25110;-72
2022/10/06 06:18:00;;;;;;;15.85;2.55;;;12.40;99.90;;;;;;5031536;28;25056;-71
2022/10/06 06:20:26;;;;;;;14.60;1.92;;;12.50;99.90;;;;;;5029040;28;25161;-72
2022/10/06 06:22:52;;;;;;;13.80;2.20;;;12.50;99.90;;;;;;5010258;28;25047;-71
2022/10/06 06:25:18;;;;;;;6.47;1.70;;;12.60;99.90;;;;;;5040683;28;25055;-71
2022/10/06 06:27:44;;;;;;;14.95;2.92;;;12.50;99.90;;;;;;5014703;28;25061;-71
2022/10/06 06:30:10;;;;;;;17.48;2.40;;;12.40;99.90;;;;;;5036957;28;25053;-72
2022/10/06 06:32:36;;;;;;;11.10;2.53;;;12.50;99.90;;;;;;5015110;28;25128;-74
2022/10/06 06:35:01;;;;;;;13.13;2.45;;;12.50;99.90;;;;;;5021533;28;25057;-71
2022/10/06 06:37:30;;;;;;;17.48;2.80;;;12.60;99.90;;;;;;5021417;28;25067;-71
2022/10/06 06:39:55;;;;;;;11.60;1.95;;;12.70;99.90;;;;;;5023111;28;25075;-73
2022/10/06 06:42:21;;;;;;;15.57;4.00;;;12.70;99.90;;;;;;5042345;28;25058;-72
2022/10/06 06:44:47;;;;;;;16.48;3.25;;;12.70;99.90;;;;;;5023204;28;25147;-72
2022/10/06 06:47:15;;;;;;;7.28;2.50;;;12.70;99.90;;;;;;5020174;28;25050;-71
2022/10/06 06:49:41;;;;;;;15.55;2.53;;;12.70;99.90;;;;;;5043204;28;25071;-73
2022/10/06 06:52:07;;;;;;;14.82;2.20;;;12.80;99.90;;;;;;5020144;28;25081;-71
2022/10/06 06:54:33;;;;;;;15.70;2.60;;;12.90;99.90;;;;;;5010781;28;25107;-72
2022/10/06 06:56:59;;;;;;;14.18;2.83;;;13.00;99.90;;;;;;5011836;28;25058;-71
2022/10/06 06:59:25;;;;;;;5.38;1.55;;;13.00;99.90;;;;;;5029944;28;25056;-72
2022/10/06 07:01:51;;;;;;;9.25;1.75;;;13.00;99.90;;;;;;5004582;28;25138;-71
2022/10/06 07:04:17;;;;;;;13.07;1.75;;;13.10;99.90;;;;;;5036448;28;25061;-72
2022/10/06 07:06:55;;;;;;;11.38;2.60;;;13.10;99.90;;;;;;5036874;28;25060;-74
2022/10/06 07:09:22;;;;;;;12.05;2.08;;;13.10;99.90;;;;;;5017971;28;25082;-73
2022/10/06 07:11:49;;;;;;;7.90;1.92;;;13.10;99.90;;;;;;5026619;28;25143;-71
2022/10/06 07:14:14;;;;;;;14.35;2.00;;;13.20;99.90;;;;;;5006629;28;25070;-71
2022/10/06 07:25:11;;;;;;;14.82;2.20;;;13.10;99.90;;;;;;5037887;28;25145;-71
2022/10/06 07:27:50;;;;;;;9.32;2.20;;;13.10;99.90;;;;;;5038003;28;25079;-71
2022/10/06 07:30:25;;;;;;;7.00;1.60;;;13.10;99.90;;;;;;5040219;28;25160;-71
2022/10/06 07:32:52;;;;;;;7.95;2.22;;;13.10;99.90;;;;;;5021765;28;25083;-69
2022/10/06 07:35:20;;;;;;;11.55;2.47;;;13.20;99.90;;;;;;5033008;28;25047;-71
2022/10/06 07:37:46;;;;;;;5.88;2.20;;;13.30;99.90;;;;;;5023451;28;25074;-71
2022/10/06 07:40:13;;;;;;;19.95;2.78;;;13.20;99.90;;;;;;5003091;28;25049;-72
2022/10/06 07:42:50;;;;;;;9.85;2.50;;;13.20;99.90;;;;;;5021720;28;25116;-72
2022/10/06 07:45:37;;;;;;;8.52;2.33;;;13.30;99.90;;;;;;4995005;28;25062;-71
2022/10/06 07:48:10;;;;;;;7.72;1.92;;;13.30;99.90;;;;;;5012218;28;25067;-72
2022/10/06 07:50:39;;;;;;;14.02;3.05;;;13.40;99.90;;;;;;5036893;28;25057;-70
2022/10/06 07:53:07;;;;;;;17.67;2.58;;;13.50;99.90;;;;;;5013323;28;25079;-68
2022/10/06 07:55:34;;;;;;;9.43;2.00;;;13.60;99.90;;;;;;5025229;28;25074;-72
2022/10/06 07:58:00;;;;;;;9.30;1.85;;;13.60;99.90;;;;;;5007998;28;25131;-71
2022/10/06 08:00:26;;;;;;;12.18;2.03;;;13.60;99.90;;;;;;5018734;28;25138;-71
2022/10/06 08:02:53;;;;;;;10.18;1.60;;;13.60;99.90;;;;;;5005002;28;25104;-71
2022/10/06 08:05:19;;;;;;;14.13;2.42;;;13.70;99.90;;;;;;5044525;28;25062;-72
2022/10/06 08:07:45;;;;;;;17.58;2.35;;;13.90;99.90;;;;;;5008376;28;25142;-73
2022/10/06 08:10:11;;;;;;;9.15;2.10;;;14.10;99.90;;;;;;5009004;28;25078;-71
2022/10/06 08:12:36;;;;;;;8.90;1.52;;;14.10;99.90;;;;;;5042075;28;25094;-73
2022/10/06 08:15:07;;;;;;;10.95;2.00;;;14.30;99.90;;;;;;5014935;28;25062;-72
2022/10/06 08:17:34;;;;;;;10.77;1.88;;;14.50;99.90;;;;;;5010134;28;25064;-71
2022/10/06 08:20:00;;;;;;;15.88;2.58;;;14.70;99.90;;;;;;5040959;28;25109;-70
2022/10/06 08:22:28;;;;;;;11.85;2.20;;;14.70;99.90;;;;;;5004819;28;25152;-70
2022/10/06 08:24:57;;;;;;;9.07;1.80;;;14.60;99.90;;;;;;5043027;28;25081;-72
2022/10/06 08:27:26;;;;;;;11.38;2.08;;;14.90;99.90;;;;;;5018158;28;25106;-71
2022/10/06 08:29:53;;;;;;;9.85;1.98;;;15.10;99.90;;;;;;5028907;28;25172;-72
2022/10/06 08:32:19;;;;;;;11.82;2.55;;;15.10;99.90;;;;;;5018552;28;25146;-71
2022/10/06 08:34:46;;;;;;;9.57;2.63;;;15.10;99.90;;;;;;5013045;28;25070;-71
2022/10/06 08:37:11;;;;;;;8.73;2.85;;;15.30;99.90;;;;;;5027298;28;25132;-73
2022/10/06 08:39:37;;;;;;;17.75;2.78;;;15.20;99.90;;;;;;5023305;28;25145;-73
2022/10/06 08:42:02;;;;;;;12.80;2.22;;;15.50;99.90;;;;;;5018035;28;25064;-71
2022/10/06 08:44:34;;;;;;;14.15;2.67;;;15.70;99.90;;;;;;5048759;28;25073;-71
2022/10/06 08:47:03;;;;;;;10.05;2.30;;;15.90;99.90;;;;;;5038984;28;25122;-71
2022/10/06 08:49:50;;;;;;;16.38;2.70;;;15.90;99.90;;;;;;5046210;28;25088;-70
2022/10/06 08:52:41;;;;;;;13.73;2.17;;;15.80;99.90;;;;;;5037207;28;25085;-72
2022/10/06 08:55:37;;;;;;;7.38;1.85;;;15.90;99.90;;;;;;5047418;28;25063;-70
2022/10/06 08:58:29;;;;;;;10.73;2.10;;;15.60;99.90;;;;;;5005508;28;25109;-73
2022/10/06 09:01:08;;;;;;;9.20;2.03;;;15.70;99.90;;;;;;5038770;28;25157;-73
2022/10/06 09:03:37;;;;;;;8.85;1.55;;;15.70;99.90;;;;;;5035320;28;25070;-72
2022/10/06 09:06:35;;;;;;;8.68;1.90;;;15.50;99.90;;;;;;5009654;28;25088;-71
2022/10/06 09:09:19;;;;;;;13.15;1.70;;;15.50;99.90;;;;;;5031820;28;25087;-72
2022/10/06 09:11:56;;;;;;;12.90;3.17;;;15.60;99.90;;;;;;5042021;28;25126;-73
2022/10/06 09:14:46;;;;;;;10.25;1.63;;;15.80;99.90;;;;;;5004723;28;25139;-72
2022/10/06 09:17:19;;;;;;;12.02;2.10;;;15.60;99.90;;;;;;5011215;28;25038;-73
2022/10/06 09:20:09;;;;;;;18.13;2.40;;;15.50;99.90;;;;;;5021434;28;25113;-71
2022/10/06 09:22:35;;;;;;;13.00;1.88;;;15.40;99.90;;;;;;5016829;28;25101;-70
2022/10/06 09:25:20;;;;;;;3.80;1.77;;;15.20;99.90;;;;;;5019051;28;25057;-71
2022/10/06 09:27:51;;;;;;;9.77;1.58;;;15.30;99.90;;;;;;5037160;28;25070;-70
2022/10/06 09:30:18;;;;;;;12.13;1.90;;;15.30;99.90;;;;;;5035906;28;25152;-71
2022/10/06 09:32:46;;;;;;;10.45;1.83;;;15.30;99.90;;;;;;5020094;28;25064;-71
2022/10/06 09:35:19;;;;;;;10.52;2.10;;;15.30;99.90;;;;;;5017764;28;25069;-71
2022/10/06 09:37:55;;;;;;;6.75;1.63;;;15.30;99.90;;;;;;5044555;28;25144;-70
2022/10/06 09:40:47;;;;;;;14.30;2.40;;;15.40;99.90;;;;;;5017649;28;25065;-72
2022/10/06 09:43:24;;;;;;;7.80;1.50;;;15.20;99.90;;;;;;5046333;28;25126;-70
2022/10/06 09:45:53;;;;;;;15.82;1.92;;;15.30;99.90;;;;;;5015172;28;25062;-70
2022/10/06 09:48:21;;;;;;;7.72;1.40;;;15.30;99.90;;;;;;4986659;28;25118;-70
2022/10/06 09:51:15;;;;;;;10.90;2.13;;;15.40;99.90;;;;;;5026414;28;25088;-70
2022/10/06 09:53:43;;;;;;;2.88;1.02;;;15.30;99.90;;;;;;5032098;28;25199;-69
2022/10/06 09:56:17;;;;;;;7.45;1.48;;;15.40;99.90;;;;;;5001852;28;25069;-70
2022/10/06 09:58:55;;;;;;;6.22;1.33;;;15.60;99.90;;;;;;5050718;28;25061;-70
2022/10/06 10:01:27;;;;;;;7.63;1.42;;;15.60;99.90;;;;;;5018592;28;25063;-70
2022/10/06 10:03:59;;;;;;;7.90;1.35;;;15.40;99.90;;;;;;5006750;28;25049;-72
2022/10/06 10:06:33;;;;;;;13.20;1.75;;;15.30;99.90;;;;;;5049395;28;25067;-71
2022/10/06 10:09:25;;;;;;;10.35;2.17;;;15.20;99.90;;;;;;5019482;28;25090;-70
2022/10/06 10:12:26;;;;;;;10.70;1.95;;;15.40;99.90;;;;;;5031429;28;25053;-71
2022/10/06 10:14:52;;;;;;;10.80;1.60;;;15.60;99.90;;;;;;5051924;28;25063;-70
2022/10/06 10:17:34;;;;;;;9.98;2.20;;;15.70;99.90;;;;;;5028165;28;25055;-72
2022/10/06 10:20:04;;;;;;;9.70;1.65;;;15.70;99.90;;;;;;5033594;28;25048;-71
2022/10/06 10:22:35;;;;;;;7.47;1.85;;;15.80;99.90;;;;;;5015525;28;25057;-71
2022/10/06 10:25:13;;;;;;;13.45;2.17;;;15.80;99.90;;;;;;5024534;28;25078;-74
2022/10/06 10:28:03;;;;;;;5.32;1.48;;;15.80;99.90;;;;;;5048152;28;25092;-70
2022/10/06 10:30:34;;;;;;;5.45;1.30;;;16.00;99.90;;;;;;5029820;28;25068;-70
2022/10/06 10:33:18;;;;;;;6.45;1.45;;;16.10;99.90;;;;;;5013809;28;25048;-72
2022/10/06 10:35:49;;;;;;;11.77;1.40;;;16.10;99.90;;;;;;5033182;28;25096;-71
2022/10/06 10:38:20;;;;;;;6.50;1.00;;;16.00;99.90;;;;;;5007269;28;25090;-71
2022/10/06 10:40:59;;;;;;;5.38;1.35;;;16.10;99.90;;;;;;5053600;28;25150;-72
2022/10/06 10:43:39;;;;;;;10.38;1.70;;;16.20;99.90;;;;;;5050994;28;25068;-71
2022/10/06 10:46:17;;;;;;;4.35;1.40;;;16.20;99.90;;;;;;5030967;28;25119;-70
2022/10/06 10:48:52;;;;;;;7.88;1.35;;;16.30;99.90;;;;;;5048449;28;25081;-71
2022/10/06 10:51:27;;;;;;;5.45;1.30;;;16.20;99.90;;;;;;5000997;28;25052;-70
2022/10/06 10:53:53;;;;;;;7.72;1.52;;;16.30;99.90;;;;;;5018427;28;25141;-71
2022/10/06 10:56:23;;;;;;;8.60;1.65;;;16.50;99.90;;;;;;5043386;28;25069;-71
2022/10/06 10:59:20;;;;;;;9.70;1.55;;;16.50;99.90;;;;;;5003176;28;25063;-70
2022/10/06 11:02:11;;;;;;;14.43;1.73;;;16.40;99.90;;;;;;5007302;28;25069;-72
2022/10/06 11:04:40;;;;;;;4.78;1.17;;;16.30;99.90;;;;;;5015178;28;25076;-70
2022/10/06 11:07:12;;;;;;;4.15;1.27;;;16.30;99.90;;;;;;5010389;28;25127;-71
2022/10/06 11:10:11;;;;;;;12.13;1.92;;;16.20;99.90;;;;;;5033812;28;25071;-71
2022/10/06 11:12:58;;;;;;;7.20;1.52;;;16.30;99.90;;;;;;5038758;28;25079;-72
2022/10/06 11:15:56;;;;;;;7.78;1.50;;;16.30;99.90;;;;;;5011965;28;25070;-73
2022/10/06 11:18:28;;;;;;;6.72;1.27;;;16.60;99.90;;;;;;5008652;28;25058;-72
2022/10/06 11:21:02;;;;;;;3.88;1.30;;;16.70;99.90;;;;;;5035818;28;25053;-72
2022/10/06 11:24:22;;;;;;;5.85;1.55;;;16.50;99.90;;;;;;5015243;28;25103;-71
2022/10/06 11:27:15;;;;;;;6.13;1.27;;;16.70;99.90;;;;;;4997881;28;25067;-71
2022/10/06 11:29:52;;;;;;;8.30;1.10;;;16.40;99.90;;;;;;5010547;28;25139;-71
2022/10/06 11:32:47;;;;;;;4.47;1.20;;;16.70;99.90;;;;;;5016537;28;25075;-71
2022/10/06 11:35:25;;;;;;;12.27;2.25;;;16.80;99.90;;;;;;5018943;28;25184;-71
2022/10/06 11:38:00;;;;;;;4.78;1.20;;;17.10;99.90;;;;;;5040215;28;25072;-71
2022/10/06 11:40:41;;;;;;;5.70;1.10;;;17.40;99.90;;;;;;5025487;28;25052;-71
2022/10/06 11:43:16;;;;;;;3.80;1.00;;;17.00;99.90;;;;;;5030511;28;25064;-72
2022/10/06 11:45:48;;;;;;;7.05;0.82;;;16.80;99.90;;;;;;5024588;28;25122;-70
2022/10/06 11:48:28;;;;;;;13.43;1.83;;;16.60;99.90;;;;;;5011027;28;25085;-70
2022/10/06 11:50:55;;;;;;;4.65;1.13;;;16.40;99.90;;;;;;5012254;28;25066;-70
2022/10/06 11:53:36;;;;;;;4.25;1.15;;;16.70;99.90;;;;;;5009163;28;25079;-70
2022/10/06 11:56:17;;;;;;;4.90;1.30;;;17.50;99.90;;;;;;5031740;28;25082;-70
2022/10/06 11:58:54;;;;;;;4.47;0.82;;;18.20;99.90;;;;;;5044688;28;25120;-71
2022/10/06 12:01:42;;;;;;;14.90;1.60;;;17.60;99.90;;;;;;5045073;28;25064;-70
2022/10/06 12:04:08;;;;;;;6.15;1.40;;;17.40;99.90;;;;;;5038958;28;25061;-71
2022/10/06 12:06:45;;;;;;;8.30;1.50;;;16.80;99.90;;;;;;5047095;28;25074;-71
2022/10/06 12:09:39;;;;;;;8.88;2.00;;;17.40;99.90;;;;;;5034977;28;25049;-71
2022/10/06 12:12:13;;;;;;;11.52;1.50;;;17.40;99.90;;;;;;5024974;28;25111;-71
2022/10/06 12:15:04;;;;;;;5.57;1.35;;;17.90;99.90;;;;;;5039221;28;25070;-72
2022/10/06 12:17:42;;;;;;;5.75;1.23;;;17.90;99.90;;;;;;5034918;28;25073;-72
2022/10/06 12:20:34;;;;;;;2.72;0.70;;;18.40;99.90;;;;;;5010834;28;25055;-71
2022/10/06 12:23:18;;;;;;;7.50;1.08;;;18.80;99.90;;;;;;5038403;28;25118;-70
2022/10/06 12:25:53;;;;;;;8.18;1.20;;;18.80;99.90;;;;;;5039281;28;25055;-71
2022/10/06 12:28:21;;;;;;;6.38;1.02;;;18.90;99.90;;;;;;5009160;28;25073;-70
2022/10/06 12:31:24;;;;;;;5.75;1.27;;;19.10;99.90;;;;;;5031605;28;25164;-71
2022/10/06 12:33:49;;;;;;;7.75;1.63;;;19.10;99.90;;;;;;5041697;28;25107;-71
2022/10/06 12:36:25;;;;;;;5.18;1.05;;;19.20;99.90;;;;;;5046100;28;25063;-69
2022/10/06 12:39:06;;;;;;;5.55;2.03;;;19.20;99.90;;;;;;5045343;28;25083;-70
2022/10/06 12:41:57;;;;;;;4.43;0.80;;;19.00;99.90;;;;;;5024683;28;25065;-71
2022/10/06 12:44:41;;;;;;;4.53;0.80;;;18.90;99.90;;;;;;5032924;28;25064;-72
2022/10/06 12:47:15;;;;;;;4.60;0.80;;;19.10;99.90;;;;;;5023090;28;25080;-72
2022/10/06 12:49:53;;;;;;;8.93;2.05;;;19.10;99.90;;;;;;4991617;28;25066;-71
2022/10/06 12:52:33;;;;;;;6.28;1.20;;;19.00;99.90;;;;;;5009459;28;25095;-71
2022/10/06 12:55:16;;;;;;;3.90;1.00;;;18.90;99.90;;;;;;5042922;28;25050;-71
2022/10/06 12:57:53;;;;;;;5.97;0.90;;;18.90;99.90;;;;;;5027054;28;25090;-71
2022/10/06 13:00:42;;;;;;;3.95;1.50;;;19.00;99.90;;;;;;5028364;28;25055;-71
2022/10/06 13:03:17;;;;;;;5.63;1.50;;;19.10;99.90;;;;;;5037330;28;25147;-72
2022/10/06 13:05:53;;;;;;;4.15;1.17;;;18.80;99.90;;;;;;5000992;28;25068;-72
2022/10/06 13:08:25;;;;;;;4.13;1.00;;;18.80;99.90;;;;;;5020242;28;25051;-71
2022/10/06 13:11:10;;;;;;;5.38;0.90;;;18.60;99.90;;;;;;4998935;28;25126;-70
2022/10/06 13:13:37;;;;;;;3.78;1.17;;;18.60;99.90;;;;;;5045855;28;25051;-73